Time,TemperatureF,DewpointF,PressureIn,WindDirection,WindDirectionDegrees,WindSpeedMPH,WindSpeedGustMPH,Humidity,HourlyPrecipIn,Conditions,Clouds,dailyrainin,SoftwareType,DateUTC
2013-11-20 00:05:00,76.3,76.3,29.84,NNE,23,0.0,0.0,100,0.00,,,0.00,Wunderground v.1.15,2013-11-20 05:05:00,
2013-11-20 00:10:00,76.3,76.3,29.84,NNE,23,0.0,0.0,100,0.00,,,0.00,Wunderground v.1.15,2013-11-20 05:10:00,
2013-11-20 00:15:00,76.3,76.3,29.84,NNE,23,0.0,0.0,100,0.00,,,0.00,Wunderground v.1.15,2013-11-20 05:15:00,
2013-11-20 00:20:00,76.3,76.3,29.84,NNE,23,0.0,0.0,100,0.00,,,0.00,Wunderground v.1.15,2013-11-20 05:20:00,
2013-11-20 00:30:00,76.3,76.3,29.83,NNE,23,0.0,0.0,100,0.00,,,0.00,Wunderground v.1.15,2013-11-20 05:30:00,
2013-11-20 00:35:00,76.3,76.3,29.83,NNE,23,0.0,0.0,100,0.00,,,0.00,Wunderground v.1.15,2013-11-20 05:35:00,
2013-11-20 00:45:00,76.1,76.1,29.83,NNE,23,0.0,0.0,100,0.00,,,0.00,Wunderground v.1.15,2013-11-20 05:45:00,
2013-11-20 00:50:00,76.1,76.1,29.83,NNE,23,0.0,0.0,100,0.00,,,0.00,Wunderground v.1.15,2013-11-20 05:50:00,
2013-11-20 00:55:00,76.0,76.0,29.83,NNE,23,0.0,0.0,100,0.00,,,0.00,Wunderground v.1.15,2013-11-20 05:55:00,
2013-11-20 01:05:00,76.0,76.0,29.83,NNE,23,0.0,0.0,100,0.00,,,0.00,Wunderground v.1.15,2013-11-20 06:05:00,
2013-11-20 01:15:00,76.0,76.0,29.83,NNE,23,0.0,0.0,100,0.00,,,0.00,Wunderground v.1.15,2013-11-20 06:15:00,
2013-11-20 01:25:00,76.0,76.0,29.83,NNE,23,0.0,0.0,100,0.00,,,0.00,Wunderground v.1.15,2013-11-20 06:25:00,
2013-11-20 01:35:00,76.0,76.0,29.83,NNE,23,0.0,0.0,100,0.00,,,0.00,Wunderground v.1.15,2013-11-20 06:35:00,
2013-11-20 01:45:00,76.0,76.0,29.83,NNE,23,0.0,0.0,100,0.00,,,0.00,Wunderground v.1.15,2013-11-20 06:45:00,
2013-11-20 01:55:00,75.8,75.8,29.83,NNE,23,0.0,0.0,100,0.00,,,0.00,Wunderground v.1.15,2013-11-20 06:55:00,
2013-11-20 02:00:00,75.8,75.8,29.83,NNE,23,0.0,0.0,100,0.00,,,0.00,Wunderground v.1.15,2013-11-20 07:00:00,
2013-11-20 02:10:00,75.6,75.6,29.83,NNE,23,0.0,0.0,100,0.00,,,0.00,Wunderground v.1.15,2013-11-20 07:10:00,
2013-11-20 02:15:00,75.6,75.6,29.83,NNE,23,0.0,0.0,100,0.00,,,0.00,Wunderground v.1.15,2013-11-20 07:15:00,
2013-11-20 02:25:00,75.6,75.6,29.83,NNE,23,0.0,0.0,100,0.00,,,0.00,Wunderground v.1.15,2013-11-20 07:25:00,
2013-11-20 02:35:00,75.4,75.4,29.83,NNE,23,0.0,0.0,100,0.00,,,0.00,Wunderground v.1.15,2013-11-20 07:35:00,
2013-11-20 02:40:00,75.4,75.4,29.83,NNE,23,0.0,0.0,100,0.00,,,0.00,Wunderground v.1.15,2013-11-20 07:40:00,
2013-11-20 02:50:00,75.3,75.3,29.83,NNE,23,0.0,0.0,100,0.00,,,0.00,Wunderground v.1.15,2013-11-20 07:50:00,
2013-11-20 03:00:00,75.3,75.3,29.83,NNE,23,0.0,0.0,100,0.00,,,0.00,Wunderground v.1.15,2013-11-20 08:00:00,
2013-11-20 03:05:00,75.3,75.3,29.83,NNE,23,0.0,0.0,100,0.00,,,0.00,Wunderground v.1.15,2013-11-20 08:05:00,
2013-11-20 03:15:00,75.3,75.3,29.83,NNE,23,0.0,0.0,100,0.00,,,0.00,Wunderground v.1.15,2013-11-20 08:15:00,
2013-11-20 03:25:00,75.3,75.3,29.83,NNE,23,0.0,0.0,100,0.00,,,0.00,Wunderground v.1.15,2013-11-20 08:25:00,
2013-11-20 03:35:00,75.1,75.1,29.83,NNE,23,0.0,0.0,100,0.00,,,0.00,Wunderground v.1.15,2013-11-20 08:35:00,
2013-11-20 03:40:00,75.1,75.1,29.83,NNE,23,0.0,0.0,100,0.00,,,0.00,Wunderground v.1.15,2013-11-20 08:40:00,
2013-11-20 03:50:00,75.1,75.1,29.83,NNE,23,0.0,0.0,100,0.00,,,0.00,Wunderground v.1.15,2013-11-20 08:50:00,
2013-11-20 04:00:00,75.1,75.1,29.83,NNE,23,0.0,0.0,100,0.00,,,0.00,Wunderground v.1.15,2013-11-20 09:00:00,
2013-11-20 04:05:00,75.1,75.1,29.83,NNE,23,0.0,0.0,100,0.00,,,0.00,Wunderground v.1.15,2013-11-20 09:05:00,
2013-11-20 04:15:00,75.1,75.1,29.84,NNE,23,0.0,0.0,100,0.00,,,0.00,Wunderground v.1.15,2013-11-20 09:15:00,
2013-11-20 04:20:00,75.1,75.1,29.84,NNE,23,0.0,0.0,100,0.00,,,0.00,Wunderground v.1.15,2013-11-20 09:20:00,
2013-11-20 04:30:00,75.1,75.1,29.84,NNE,23,0.0,0.0,100,0.00,,,0.00,Wunderground v.1.15,2013-11-20 09:30:00,
2013-11-20 04:40:00,75.1,75.1,29.84,NNE,23,0.0,0.0,100,0.00,,,0.00,Wunderground v.1.15,2013-11-20 09:40:00,
2013-11-20 04:45:00,75.1,75.1,29.84,NNE,23,0.0,0.0,100,0.00,,,0.00,Wunderground v.1.15,2013-11-20 09:45:00,
2013-11-20 04:55:00,75.1,75.1,29.84,NNE,23,0.0,0.0,100,0.00,,,0.00,Wunderground v.1.15,2013-11-20 09:55:00,
2013-11-20 05:00:00,75.1,75.1,29.85,NNE,23,0.0,0.0,100,0.00,,,0.00,Wunderground v.1.15,2013-11-20 10:00:00,
2013-11-20 05:10:00,75.1,75.1,29.85,NNE,23,0.0,0.0,100,0.00,,,0.00,Wunderground v.1.15,2013-11-20 10:10:00,
2013-11-20 05:20:00,75.1,75.1,29.85,NNE,23,0.0,0.0,100,0.00,,,0.00,Wunderground v.1.15,2013-11-20 10:20:00,
2013-11-20 05:25:00,74.9,74.9,29.85,NNE,23,0.0,0.0,100,0.00,,,0.00,Wunderground v.1.15,2013-11-20 10:25:00,
2013-11-20 05:35:00,74.9,74.9,29.85,NNE,23,0.0,0.0,100,0.00,,,0.00,Wunderground v.1.15,2013-11-20 10:35:00,
2013-11-20 05:40:00,74.7,74.7,29.85,NNE,23,0.0,0.0,100,0.00,,,0.00,Wunderground v.1.15,2013-11-20 10:40:00,
2013-11-20 05:50:00,74.9,74.9,29.86,NNE,23,0.0,0.0,100,0.00,,,0.00,Wunderground v.1.15,2013-11-20 10:50:00,
2013-11-20 05:55:00,74.9,74.9,29.86,NNE,23,0.0,0.0,100,0.00,,,0.00,Wunderground v.1.15,2013-11-20 10:55:00,
2013-11-20 06:05:00,75.3,75.3,29.86,NNE,23,0.0,0.0,100,0.00,,,0.00,Wunderground v.1.15,2013-11-20 11:05:00,
2013-11-20 06:15:00,75.3,75.3,29.87,NNE,23,0.0,0.0,100,0.00,,,0.00,Wunderground v.1.15,2013-11-20 11:15:00,
2013-11-20 06:20:00,75.3,75.3,29.87,NNE,23,0.0,0.0,100,0.00,,,0.00,Wunderground v.1.15,2013-11-20 11:20:00,
2013-11-20 06:25:00,75.3,75.3,29.87,NNE,23,0.0,0.0,100,0.00,,,0.00,Wunderground v.1.15,2013-11-20 11:25:00,
2013-11-20 06:35:00,75.3,75.3,29.87,NNE,23,0.0,0.0,100,0.00,,,0.00,Wunderground v.1.15,2013-11-20 11:35:00,
2013-11-20 06:45:00,75.3,75.3,29.87,NNE,23,0.0,0.0,100,0.00,,,0.00,Wunderground v.1.15,2013-11-20 11:45:00,
2013-11-20 06:50:00,75.3,75.3,29.87,NNE,23,0.0,0.0,100,0.00,,,0.00,Wunderground v.1.15,2013-11-20 11:50:00,
2013-11-20 07:00:00,75.4,75.4,29.88,NNE,21,0.0,0.0,100,0.00,,,0.00,Wunderground v.1.15,2013-11-20 12:00:00,
2013-11-20 07:10:00,75.6,75.6,29.88,NNE,21,0.0,0.0,100,0.00,,,0.00,Wunderground v.1.15,2013-11-20 12:10:00,
2013-11-20 07:15:00,75.6,75.6,29.88,NNE,21,0.0,0.0,100,0.00,,,0.00,Wunderground v.1.15,2013-11-20 12:15:00,
2013-11-20 07:25:00,75.6,75.6,29.88,NNE,21,0.0,0.0,100,0.00,,,0.00,Wunderground v.1.15,2013-11-20 12:25:00,
2013-11-20 07:35:00,75.6,75.6,29.88,NNE,21,0.0,0.0,100,0.00,,,0.00,Wunderground v.1.15,2013-11-20 12:35:00,
2013-11-20 07:45:00,75.8,75.8,29.89,NNE,21,0.0,0.0,100,0.00,,,0.00,Wunderground v.1.15,2013-11-20 12:45:00,
2013-11-20 07:55:00,75.8,75.8,29.89,NNE,21,0.0,0.0,100,0.00,,,0.00,Wunderground v.1.15,2013-11-20 12:55:00,
2013-11-20 08:00:00,76.0,76.0,29.89,NNE,21,0.0,0.0,100,0.00,,,0.00,Wunderground v.1.15,2013-11-20 13:00:00,
2013-11-20 08:15:00,76.1,76.1,29.90,NNE,21,0.0,1.0,100,0.00,,,0.00,Wunderground v.1.15,2013-11-20 13:15:00,
2013-11-20 08:25:00,76.3,76.3,29.90,NNE,20,2.0,2.0,100,0.00,,,0.00,Wunderground v.1.15,2013-11-20 13:25:00,
2013-11-20 08:30:00,76.5,76.5,29.91,NNE,20,1.0,1.0,100,0.00,,,0.00,Wunderground v.1.15,2013-11-20 13:30:00,
2013-11-20 08:40:00,76.5,76.5,29.91,NE,44,0.0,0.0,100,0.00,,,0.00,Wunderground v.1.15,2013-11-20 13:40:00,
2013-11-20 08:45:00,76.5,76.5,29.91,NE,44,0.0,0.0,100,0.00,,,0.00,Wunderground v.1.15,2013-11-20 13:45:00,
2013-11-20 08:55:00,76.7,76.7,29.91,NE,44,0.0,0.0,100,0.00,,,0.00,Wunderground v.1.15,2013-11-20 13:55:00,
2013-11-20 09:05:00,77.4,77.4,29.91,NE,44,0.0,0.0,100,0.00,,,0.00,Wunderground v.1.15,2013-11-20 14:05:00,
2013-11-20 09:10:00,77.9,77.9,29.91,NE,45,0.0,0.0,100,0.00,,,0.00,Wunderground v.1.15,2013-11-20 14:10:00,
2013-11-20 09:15:00,78.5,78.5,29.91,NE,52,0.0,0.0,100,0.00,,,0.00,Wunderground v.1.15,2013-11-20 14:15:00,
2013-11-20 09:25:00,79.0,79.0,29.91,ENE,62,1.0,1.0,100,0.00,,,0.00,Wunderground v.1.15,2013-11-20 14:25:00,
2013-11-20 09:30:00,79.2,79.2,29.92,ENE,62,0.0,0.0,100,0.00,,,0.00,Wunderground v.1.15,2013-11-20 14:30:00,
2013-11-20 09:40:00,79.4,79.4,29.92,ENE,62,1.0,1.0,100,0.00,,,0.00,Wunderground v.1.15,2013-11-20 14:40:00,
2013-11-20 09:45:00,79.4,79.4,29.92,ENE,76,2.0,2.0,100,0.00,,,0.00,Wunderground v.1.15,2013-11-20 14:45:00,
2013-11-20 09:55:00,79.2,79.2,29.92,NE,55,4.0,6.0,100,0.00,,,0.00,Wunderground v.1.15,2013-11-20 14:55:00,
2013-11-20 10:00:00,79.4,79.4,29.92,NE,56,5.0,5.0,100,0.00,,,0.00,Wunderground v.1.15,2013-11-20 15:00:00,
2013-11-20 10:10:00,79.9,79.9,29.92,East,85,1.0,1.0,100,0.00,,,0.00,Wunderground v.1.15,2013-11-20 15:10:00,
2013-11-20 10:20:00,80.3,80.3,29.92,SSE,152,1.0,1.0,100,0.00,,,0.00,Wunderground v.1.15,2013-11-20 15:20:00,
2013-11-20 10:25:00,81.1,81.1,29.92,ESE,117,1.0,1.0,100,0.00,,,0.00,Wunderground v.1.15,2013-11-20 15:25:00,
2013-11-20 10:35:00,82.0,82.0,29.93,SE,131,2.0,6.0,100,0.00,,,0.00,Wunderground v.1.15,2013-11-20 15:35:00,
2013-11-20 10:45:00,82.0,82.0,29.93,SE,140,1.0,2.0,100,0.00,,,0.00,Wunderground v.1.15,2013-11-20 15:45:00,
2013-11-20 10:55:00,82.2,82.2,29.93,SE,131,2.0,6.0,100,0.00,,,0.00,Wunderground v.1.15,2013-11-20 15:55:00,
2013-11-20 11:00:00,82.0,82.0,29.93,SSE,147,3.0,3.0,100,0.00,,,0.00,Wunderground v.1.15,2013-11-20 16:00:00,
2013-11-20 11:10:00,82.0,82.0,29.93,SSE,152,2.0,5.0,100,0.00,,,0.00,Wunderground v.1.15,2013-11-20 16:10:00,
2013-11-20 11:20:00,82.4,82.4,29.93,SE,128,1.0,1.0,100,0.00,,,0.00,Wunderground v.1.15,2013-11-20 16:20:00,
2013-11-20 11:25:00,81.8,81.8,29.93,ESE,120,2.0,3.0,100,0.00,,,0.00,Wunderground v.1.15,2013-11-20 16:25:00,
2013-11-20 11:30:00,81.4,81.4,29.92,SE,133,4.0,4.0,100,0.00,,,0.00,Wunderground v.1.15,2013-11-20 16:30:00,
2013-11-20 11:40:00,81.6,81.6,29.92,ESE,114,2.0,2.0,100,0.00,,,0.00,Wunderground v.1.15,2013-11-20 16:40:00,
2013-11-20 11:50:00,81.8,81.8,29.92,ESE,121,3.0,6.0,100,0.00,,,0.00,Wunderground v.1.15,2013-11-20 16:50:00,
2013-11-20 12:05:00,82.0,82.0,29.92,ESE,120,2.0,5.0,100,0.00,,,0.00,Wunderground v.1.15,2013-11-20 17:05:00,
2013-11-20 12:10:00,82.0,82.0,29.92,SE,126,2.0,2.0,100,0.00,,,0.00,Wunderground v.1.15,2013-11-20 17:10:00,
2013-11-20 12:20:00,82.0,82.0,29.91,SE,126,2.0,3.0,100,0.00,,,0.00,Wunderground v.1.15,2013-11-20 17:20:00,
2013-11-20 12:30:00,82.0,82.0,29.90,SE,133,2.0,2.0,100,0.00,,,0.00,Wunderground v.1.15,2013-11-20 17:30:00,
2013-11-20 12:40:00,82.2,82.2,29.90,ESE,123,2.0,2.0,100,0.00,,,0.00,Wunderground v.1.15,2013-11-20 17:40:00,
2013-11-20 12:45:00,82.0,82.0,29.89,ESE,113,3.0,3.0,100,0.00,,,0.00,Wunderground v.1.15,2013-11-20 17:45:00,
2013-11-20 12:55:00,82.4,82.4,29.89,ESE,119,1.0,2.0,100,0.00,,,0.00,Wunderground v.1.15,2013-11-20 17:55:00,
2013-11-20 13:00:00,82.4,82.4,29.89,SSE,164,1.0,2.0,100,0.00,,,0.00,Wunderground v.1.15,2013-11-20 18:00:00,
2013-11-20 13:10:00,81.4,81.4,29.89,ESE,121,4.0,4.0,100,0.00,,,0.00,Wunderground v.1.15,2013-11-20 18:10:00,
2013-11-20 13:20:00,81.6,81.6,29.88,SE,128,3.0,6.0,100,0.00,,,0.00,Wunderground v.1.15,2013-11-20 18:20:00,
2013-11-20 13:25:00,81.4,81.4,29.88,ESE,117,4.0,6.0,100,0.00,,,0.00,Wunderground v.1.15,2013-11-20 18:25:00,
2013-11-20 13:35:00,82.0,82.0,29.87,ESE,107,1.0,3.0,100,0.00,,,0.00,Wunderground v.1.15,2013-11-20 18:35:00,
2013-11-20 13:45:00,82.4,82.4,29.87,SSE,152,1.0,4.0,100,0.00,,,0.00,Wunderground v.1.15,2013-11-20 18:45:00,
2013-11-20 13:55:00,82.0,82.0,29.87,SE,124,2.0,5.0,100,0.00,,,0.00,Wunderground v.1.15,2013-11-20 18:55:00,
2013-11-20 14:05:00,81.2,81.2,29.87,ESE,123,3.0,3.0,100,0.00,,,0.00,Wunderground v.1.15,2013-11-20 19:05:00,
2013-11-20 14:15:00,81.2,81.2,29.86,SE,124,2.0,3.0,100,0.00,,,0.00,Wunderground v.1.15,2013-11-20 19:15:00,
2013-11-20 14:25:00,81.6,81.6,29.86,SE,126,1.0,3.0,100,0.00,,,0.00,Wunderground v.1.15,2013-11-20 19:25:00,
2013-11-20 14:30:00,81.2,81.2,29.86,SE,136,2.0,2.0,100,0.00,,,0.00,Wunderground v.1.15,2013-11-20 19:30:00,
2013-11-20 14:40:00,81.2,81.2,29.86,SE,126,2.0,2.0,100,0.00,,,0.00,Wunderground v.1.15,2013-11-20 19:40:00,
2013-11-20 14:50:00,81.6,81.6,29.86,ESE,119,1.0,1.0,100,0.00,,,0.00,Wunderground v.1.15,2013-11-20 19:50:00,
2013-11-20 15:00:00,81.2,81.2,29.86,SE,126,1.0,3.0,100,0.00,,,0.00,Wunderground v.1.15,2013-11-20 20:00:00,
2013-11-20 15:05:00,81.2,81.2,29.86,ESE,116,1.0,5.0,100,0.00,,,0.00,Wunderground v.1.15,2013-11-20 20:05:00,
2013-11-20 15:15:00,80.9,80.9,29.86,ESE,116,1.0,2.0,100,0.00,,,0.00,Wunderground v.1.15,2013-11-20 20:15:00,
2013-11-20 15:20:00,81.1,81.1,29.86,ESE,113,1.0,1.0,100,0.00,,,0.00,Wunderground v.1.15,2013-11-20 20:20:00,
2013-11-20 15:30:00,81.1,81.1,29.86,ESE,107,0.0,0.0,100,0.00,,,0.00,Wunderground v.1.15,2013-11-20 20:30:00,
2013-11-20 15:35:00,81.2,81.2,29.86,ESE,104,0.0,0.0,100,0.00,,,0.00,Wunderground v.1.15,2013-11-20 20:35:00,
2013-11-20 15:45:00,81.1,81.1,29.87,ESE,107,0.0,0.0,100,0.00,,,0.00,Wunderground v.1.15,2013-11-20 20:45:00,
2013-11-20 15:55:00,80.9,80.9,29.87,ESE,112,0.0,0.0,100,0.00,,,0.00,Wunderground v.1.15,2013-11-20 20:55:00,
2013-11-20 16:00:00,81.1,81.1,29.87,ESE,112,0.0,0.0,100,0.00,,,0.00,Wunderground v.1.15,2013-11-20 21:00:00,
2013-11-20 16:10:00,80.9,80.9,29.87,ESE,112,0.0,0.0,100,0.00,,,0.00,Wunderground v.1.15,2013-11-20 21:10:00,
2013-11-20 16:20:00,80.7,80.7,29.87,ESE,113,0.0,0.0,100,0.00,,,0.00,Wunderground v.1.15,2013-11-20 21:20:00,
2013-11-20 16:30:00,80.5,80.5,29.88,ESE,112,0.0,0.0,100,0.00,,,0.00,Wunderground v.1.15,2013-11-20 21:30:00,
2013-11-20 16:40:00,80.5,80.5,29.88,ESE,112,0.0,0.0,100,0.00,,,0.00,Wunderground v.1.15,2013-11-20 21:40:00,
2013-11-20 16:50:00,80.5,80.5,29.88,ESE,110,0.0,0.0,100,0.00,,,0.00,Wunderground v.1.15,2013-11-20 21:50:00,
2013-11-20 16:55:00,80.3,80.3,29.88,ESE,102,0.0,0.0,100,0.00,,,0.00,Wunderground v.1.15,2013-11-20 21:55:00,
2013-11-20 17:05:00,80.3,80.3,29.89,ESE,102,0.0,0.0,100,0.00,,,0.00,Wunderground v.1.15,2013-11-20 22:05:00,
2013-11-20 17:10:00,80.3,80.3,29.89,ESE,102,0.0,0.0,100,0.00,,,0.00,Wunderground v.1.15,2013-11-20 22:10:00,
2013-11-20 17:20:00,80.1,80.1,29.89,ESE,102,0.0,0.0,100,0.00,,,0.00,Wunderground v.1.15,2013-11-20 22:20:00,
2013-11-20 17:30:00,79.8,79.8,29.90,ESE,102,0.0,0.0,100,0.00,,,0.00,Wunderground v.1.15,2013-11-20 22:30:00,
2013-11-20 17:40:00,79.6,79.6,29.90,ESE,102,0.0,0.0,100,0.00,,,0.00,Wunderground v.1.15,2013-11-20 22:40:00,
2013-11-20 17:50:00,79.4,79.4,29.90,ESE,102,0.0,0.0,100,0.00,,,0.00,Wunderground v.1.15,2013-11-20 22:50:00,
2013-11-20 17:55:00,79.2,79.2,29.90,ESE,102,0.0,0.0,100,0.00,,,0.00,Wunderground v.1.15,2013-11-20 22:55:00,
2013-11-20 18:05:00,79.0,79.0,29.90,ESE,102,0.0,0.0,100,0.00,,,0.00,Wunderground v.1.15,2013-11-20 23:05:00,
2013-11-20 18:10:00,78.8,78.8,29.90,ESE,102,0.0,0.0,100,0.00,,,0.00,Wunderground v.1.15,2013-11-20 23:10:00,
2013-11-20 18:20:00,78.8,78.8,29.90,ESE,102,0.0,0.0,100,0.00,,,0.00,Wunderground v.1.15,2013-11-20 23:20:00,
2013-11-20 18:25:00,78.8,78.8,29.90,ESE,102,0.0,0.0,100,0.00,,,0.00,Wunderground v.1.15,2013-11-20 23:25:00,
2013-11-20 18:35:00,78.6,78.6,29.91,ESE,102,0.0,0.0,100,0.00,,,0.00,Wunderground v.1.15,2013-11-20 23:35:00,
2013-11-20 18:40:00,78.6,78.6,29.91,ESE,102,0.0,0.0,100,0.00,,,0.00,Wunderground v.1.15,2013-11-20 23:40:00,
2013-11-20 18:50:00,78.8,78.8,29.92,ESE,102,0.0,0.0,100,0.00,,,0.00,Wunderground v.1.15,2013-11-20 23:50:00,
2013-11-20 18:55:00,78.8,78.8,29.92,ESE,102,0.0,0.0,100,0.00,,,0.00,Wunderground v.1.15,2013-11-20 23:55:00,
2013-11-20 19:05:00,78.8,78.8,29.92,ESE,102,0.0,0.0,100,0.00,,,0.00,Wunderground v.1.15,2013-11-21 00:05:00,
2013-11-20 19:10:00,78.8,78.8,29.92,ESE,102,0.0,0.0,100,0.00,,,0.00,Wunderground v.1.15,2013-11-21 00:10:00,
2013-11-20 19:20:00,78.8,78.8,29.93,East,100,0.0,0.0,100,0.00,,,0.00,Wunderground v.1.15,2013-11-21 00:20:00,
2013-11-20 19:25:00,78.8,78.8,29.93,East,100,0.0,0.0,100,0.00,,,0.00,Wunderground v.1.15,2013-11-21 00:25:00,
2013-11-20 19:35:00,78.8,78.8,29.93,East,95,0.0,0.0,100,0.00,,,0.00,Wunderground v.1.15,2013-11-21 00:35:00,
2013-11-20 19:45:00,78.6,78.6,29.92,East,97,0.0,0.0,100,0.00,,,0.00,Wunderground v.1.15,2013-11-21 00:45:00,
2013-11-20 19:50:00,78.6,78.6,29.92,East,99,0.0,0.0,100,0.00,,,0.00,Wunderground v.1.15,2013-11-21 00:50:00,
2013-11-20 20:00:00,78.8,78.8,29.93,East,99,0.0,0.0,100,0.00,,,0.00,Wunderground v.1.15,2013-11-21 01:00:00,
2013-11-20 20:10:00,78.8,78.8,29.93,East,96,0.0,0.0,100,0.00,,,0.00,Wunderground v.1.15,2013-11-21 01:10:00,
2013-11-20 20:15:00,78.8,78.8,29.93,East,96,0.0,0.0,100,0.00,,,0.00,Wunderground v.1.15,2013-11-21 01:15:00,
2013-11-20 20:25:00,78.8,78.8,29.93,East,100,0.0,0.0,100,0.00,,,0.00,Wunderground v.1.15,2013-11-21 01:25:00,
2013-11-20 20:30:00,78.8,78.8,29.94,ESE,109,0.0,0.0,100,0.00,,,0.00,Wunderground v.1.15,2013-11-21 01:30:00,
2013-11-20 20:40:00,79.0,79.0,29.94,ENE,75,0.0,0.0,100,0.00,,,0.00,Wunderground v.1.15,2013-11-21 01:40:00,
2013-11-20 20:50:00,78.8,78.8,29.95,East,96,0.0,0.0,100,0.00,,,0.00,Wunderground v.1.15,2013-11-21 01:50:00,
2013-11-20 20:55:00,78.8,78.8,29.95,East,92,0.0,0.0,100,0.00,,,0.00,Wunderground v.1.15,2013-11-21 01:55:00,
2013-11-20 21:05:00,78.8,78.8,29.95,East,89,0.0,5.0,100,0.00,,,0.00,Wunderground v.1.15,2013-11-21 02:05:00,
2013-11-20 21:10:00,79.0,79.0,29.95,ESE,103,0.0,0.0,100,0.00,,,0.00,Wunderground v.1.15,2013-11-21 02:10:00,
2013-11-20 21:20:00,79.0,79.0,29.95,East,93,0.0,6.0,100,0.00,,,0.00,Wunderground v.1.15,2013-11-21 02:20:00,
2013-11-20 21:25:00,79.0,79.0,29.95,East,92,1.0,6.0,100,0.00,,,0.00,Wunderground v.1.15,2013-11-21 02:25:00,
2013-11-20 21:35:00,79.0,79.0,29.95,East,90,0.0,1.0,100,0.00,,,0.00,Wunderground v.1.15,2013-11-21 02:35:00,
2013-11-20 21:45:00,79.0,79.0,29.95,East,85,1.0,2.0,100,0.00,,,0.00,Wunderground v.1.15,2013-11-21 02:45:00,
2013-11-20 21:50:00,79.0,79.0,29.95,ESE,107,1.0,1.0,100,0.00,,,0.00,Wunderground v.1.15,2013-11-21 02:50:00,
2013-11-20 22:00:00,79.0,79.0,29.95,East,85,1.0,2.0,100,0.00,,,0.00,Wunderground v.1.15,2013-11-21 03:00:00,
2013-11-20 22:05:00,79.0,79.0,29.95,East,80,1.0,2.0,100,0.00,,,0.00,Wunderground v.1.15,2013-11-21 03:05:00,
2013-11-20 22:15:00,78.8,78.8,29.96,East,82,1.0,1.0,100,0.00,,,0.00,Wunderground v.1.15,2013-11-21 03:15:00,
2013-11-20 22:20:00,79.0,79.0,29.96,East,82,1.0,1.0,100,0.00,,,0.00,Wunderground v.1.15,2013-11-21 03:20:00,
2013-11-20 22:30:00,79.0,79.0,29.96,East,95,1.0,1.0,100,0.00,,,0.00,Wunderground v.1.15,2013-11-21 03:30:00,
2013-11-20 22:40:00,79.0,79.0,29.96,ENE,76,0.0,7.0,100,0.00,,,0.00,Wunderground v.1.15,2013-11-21 03:40:00,
2013-11-20 22:50:00,79.0,79.0,29.95,East,93,1.0,1.0,100,0.00,,,0.00,Wunderground v.1.15,2013-11-21 03:50:00,
2013-11-20 22:55:00,78.8,-99.9,29.95,East,92,0.0,1.0,255,0.00,,,0.00,Wunderground v.1.15,2013-11-21 03:55:00,
2013-11-20 23:05:00,78.8,78.8,29.95,ENE,78,2.0,5.0,100,0.00,,,0.00,Wunderground v.1.15,2013-11-21 04:05:00,
2013-11-20 23:10:00,79.0,79.0,29.95,East,83,1.0,1.0,100,0.00,,,0.00,Wunderground v.1.15,2013-11-21 04:10:00,
2013-11-20 23:20:00,79.0,79.0,29.95,East,89,1.0,1.0,100,0.00,,,0.00,Wunderground v.1.15,2013-11-21 04:20:00,